createdAt,value
2019-01-12T00:02:18.240Z,97645.98
2019-01-12T00:04:48.059Z,97651.21
2019-01-12T00:07:17.879Z,97652.06
2019-01-12T00:09:47.613Z,97647.70
2019-01-12T00:12:17.315Z,97647.70
2019-01-12T00:14:47.139Z,97644.27
2019-01-12T00:17:16.810Z,97646.41
2019-01-12T00:19:46.515Z,97646.41
2019-01-12T00:22:16.358Z,97639.52
2019-01-12T00:24:46.145Z,97639.52
2019-01-12T00:27:16.595Z,97632.66
2019-01-12T00:29:46.454Z,97631.84
2019-01-12T00:32:16.271Z,97631.84
2019-01-12T00:34:46.154Z,97628.48
2019-01-12T00:37:16.004Z,97628.82
2019-01-12T00:39:49.060Z,97628.82
2019-01-12T00:42:18.864Z,97624.52
2019-01-12T00:44:48.685Z,97618.02
2019-01-12T00:47:18.390Z,97622.37
2019-01-12T00:49:48.290Z,97624.53
2019-01-12T00:52:18.025Z,97624.53
2019-01-12T00:54:47.956Z,97617.34
2019-01-12T00:57:17.758Z,97626.55
2019-01-12T00:59:47.567Z,97626.55
2019-01-12T01:02:18.220Z,97623.50
2019-01-12T01:04:47.999Z,97623.50
2019-01-12T01:07:17.774Z,97629.13
2019-01-12T01:09:47.396Z,97630.44
2019-01-12T01:12:17.327Z,97624.45
2019-01-12T01:14:47.165Z,97627.55
2019-01-12T01:17:16.957Z,97631.91
2019-01-12T01:19:46.866Z,97633.22
2019-01-12T01:22:16.595Z,97640.08
2019-01-12T01:24:46.388Z,97640.08
2019-01-12T01:27:16.216Z,97637.41
2019-01-12T01:29:46.324Z,97637.41
2019-01-12T01:32:16.040Z,97631.81
2019-01-12T01:34:45.886Z,97638.25
2019-01-12T01:37:15.732Z,97634.83
2019-01-12T01:39:45.507Z,97635.34
2019-01-12T01:42:15.371Z,97635.34
2019-01-12T01:44:45.039Z,97640.10
2019-01-12T01:47:14.828Z,97639.29
2019-01-12T01:49:44.615Z,97635.33
2019-01-12T01:52:14.380Z,97642.55
2019-01-12T01:54:44.185Z,97639.53
2019-01-12T01:57:13.873Z,97633.95
2019-01-12T01:59:43.560Z,97631.37
2019-01-12T02:02:13.361Z,97632.58
2019-01-12T02:04:43.086Z,97634.27
2019-01-12T02:07:12.897Z,97641.99
2019-01-12T02:09:42.823Z,97636.45
2019-01-12T02:12:12.584Z,97640.73
2019-01-12T02:14:42.252Z,97632.47
2019-01-12T02:17:11.887Z,97632.47
2019-01-12T02:19:41.673Z,97630.64
2019-01-12T02:22:11.567Z,97626.73
2019-01-12T02:24:41.337Z,97630.37
2019-01-12T02:27:11.086Z,97630.37
2019-01-12T02:29:40.889Z,97626.25
2019-01-12T02:32:10.712Z,97623.46
2019-01-12T02:34:40.732Z,97625.09
2019-01-12T02:37:10.490Z,97630.86
2019-01-12T02:39:40.276Z,97630.86
2019-01-12T02:42:10.081Z,97617.34
2019-01-12T02:44:39.950Z,97618.50
2019-01-12T02:47:09.705Z,97626.53
2019-01-12T02:49:39.441Z,97622.70
2019-01-12T02:52:09.225Z,97615.02
2019-01-12T02:54:39.021Z,97616.19
2019-01-12T02:57:08.990Z,97625.34
2019-01-12T02:59:38.660Z,97619.36
2019-01-12T03:02:08.356Z,97609.19
2019-01-12T03:04:38.195Z,97606.63
2019-01-12T03:07:07.976Z,97598.16
2019-01-12T03:09:37.683Z,97599.12
2019-01-12T03:12:07.594Z,97594.45
2019-01-12T03:14:37.275Z,97588.02
2019-01-12T03:17:07.114Z,97586.86
2019-01-12T03:19:37.053Z,97585.91
2019-01-12T03:22:06.968Z,97580.33
2019-01-12T03:24:36.777Z,97587.08
2019-01-12T03:27:06.571Z,97586.39
2019-01-12T03:29:36.394Z,97576.25
2019-01-12T03:32:06.219Z,97588.91
2019-01-12T03:34:36.205Z,97579.08
2019-01-12T03:37:06.061Z,97580.83
2019-01-12T03:39:35.766Z,97577.42
2019-01-12T03:42:05.670Z,97576.65
2019-01-12T03:44:35.550Z,97575.45
2019-01-12T03:47:05.535Z,97578.58
2019-01-12T03:49:35.327Z,97577.53
2019-01-12T03:52:05.196Z,97584.23
2019-01-12T03:54:34.945Z,97588.53
2019-01-12T03:57:04.715Z,97573.12
2019-01-12T03:59:34.436Z,97572.70
2019-01-12T04:02:04.133Z,97571.55
2019-01-12T04:04:33.913Z,97560.30
2019-01-12T04:07:03.739Z,97564.55
2019-01-12T04:09:33.521Z,97556.84
2019-01-12T04:12:03.333Z,97559.93
2019-01-12T04:14:33.190Z,97564.24
2019-01-12T04:17:03.321Z,97567.66
2019-01-12T04:19:33.020Z,97558.99
2019-01-12T04:22:02.835Z,97566.12
2019-01-12T04:24:32.604Z,97567.10
2019-01-12T04:27:02.494Z,97556.17
2019-01-12T04:29:33.171Z,97563.44
2019-01-12T04:32:02.959Z,97560.98
2019-01-12T04:34:32.819Z,97565.62
2019-01-12T04:37:02.599Z,97558.72
2019-01-12T04:39:32.436Z,97563.67
2019-01-12T04:42:02.185Z,97553.89
2019-01-12T04:44:32.354Z,97559.95
2019-01-12T04:47:02.136Z,97543.75
2019-01-12T04:49:31.886Z,97545.50
2019-01-12T04:52:01.617Z,97540.38
2019-01-12T04:54:31.421Z,97545.16
2019-01-12T04:57:01.194Z,97551.59
2019-01-12T04:59:30.932Z,97549.05
2019-01-12T05:02:00.709Z,97552.95
2019-01-12T05:04:30.434Z,97547.81
2019-01-12T05:07:00.227Z,97544.75
2019-01-12T05:09:29.983Z,97546.15
2019-01-12T05:11:59.676Z,97540.02
2019-01-12T05:14:29.454Z,97535.61
2019-01-12T05:16:59.173Z,97541.11
2019-01-12T05:19:28.898Z,97535.98
2019-01-12T05:21:58.834Z,97546.25
2019-01-12T05:24:28.558Z,97546.89
2019-01-12T05:26:58.314Z,97542.62
2019-01-12T05:29:28.079Z,97525.23
2019-01-12T05:31:57.885Z,97532.22
2019-01-12T05:34:27.667Z,97520.43
2019-01-12T05:36:57.374Z,97530.84
2019-01-12T05:39:27.295Z,97526.00
2019-01-12T05:41:57.058Z,97520.24
2019-01-12T05:44:27.424Z,97510.30
2019-01-12T05:46:57.307Z,97526.30
2019-01-12T05:49:27.117Z,97526.25
2019-01-12T05:51:56.815Z,97517.66
2019-01-12T05:54:26.555Z,97530.45
2019-01-12T05:56:56.377Z,97533.04
2019-01-12T05:59:26.085Z,97539.75
2019-01-12T06:01:55.905Z,97535.66
2019-01-12T06:04:25.643Z,97543.31
2019-01-12T06:06:55.469Z,97554.02
2019-01-12T06:09:25.365Z,97549.75
2019-01-12T06:11:55.199Z,97536.92
2019-01-12T06:14:24.890Z,97543.80
2019-01-12T06:16:54.670Z,97557.05
2019-01-12T06:19:24.510Z,97550.52
2019-01-12T06:21:54.279Z,97544.75
2019-01-12T06:24:24.115Z,97548.95
2019-01-12T06:26:54.091Z,97559.63
2019-01-12T06:29:23.717Z,97553.98
2019-01-12T06:31:53.412Z,97566.86
2019-01-12T06:34:23.250Z,97574.51
2019-01-12T06:36:52.961Z,97563.22
2019-01-12T06:39:22.864Z,97547.38
2019-01-12T06:41:52.616Z,97547.38
2019-01-12T06:44:22.465Z,97543.98
2019-01-12T06:46:52.279Z,97537.48
2019-01-12T06:49:21.853Z,97548.66
2019-01-12T06:51:51.546Z,97552.88
2019-01-12T06:54:22.444Z,97541.69
2019-01-12T06:56:52.535Z,97561.59
2019-01-12T06:59:22.330Z,97550.38
2019-01-12T07:01:52.191Z,97575.64
2019-01-12T07:04:21.929Z,97587.22
2019-01-12T07:06:51.704Z,97595.09
2019-01-12T07:09:21.643Z,97607.93
2019-01-12T07:11:51.348Z,97595.27
2019-01-12T07:14:21.115Z,97606.47
2019-01-12T07:16:50.735Z,97609.85
2019-01-12T07:19:20.601Z,97614.73
2019-01-12T07:21:50.222Z,97611.80
2019-01-12T07:24:19.778Z,97613.13
2019-01-12T07:26:49.575Z,97619.67
2019-01-12T07:29:19.472Z,97616.48
2019-01-12T07:31:49.136Z,97613.66
2019-01-12T07:34:18.861Z,97622.86
2019-01-12T07:36:48.755Z,97616.55
2019-01-12T07:39:18.565Z,97619.72
2019-01-12T07:41:48.301Z,97619.09
2019-01-12T07:44:18.048Z,97614.60
2019-01-12T07:46:47.771Z,97625.56
2019-01-12T07:49:17.513Z,97634.94
2019-01-12T07:51:47.503Z,97630.97
2019-01-12T07:54:17.244Z,97625.94
2019-01-12T07:56:46.936Z,97621.03
2019-01-12T07:59:16.764Z,97631.39
2019-01-12T08:01:46.558Z,97630.64
2019-01-12T08:04:16.332Z,97628.41
2019-01-12T08:06:46.113Z,97633.23
2019-01-12T08:09:15.869Z,97626.84
2019-01-12T08:11:45.747Z,97633.81
2019-01-12T08:14:15.467Z,97634.36
2019-01-12T08:16:45.269Z,97630.16
2019-01-12T08:19:15.062Z,97645.18
2019-01-12T08:21:44.804Z,97645.18
2019-01-12T08:24:14.555Z,97647.99
2019-01-12T08:26:45.028Z,97642.36
2019-01-12T08:29:14.770Z,97646.18
2019-01-12T08:31:44.530Z,97634.55
2019-01-12T08:34:14.291Z,97634.55
2019-01-12T08:36:44.081Z,97631.25
2019-01-12T08:39:13.863Z,97621.46
2019-01-12T08:41:43.857Z,97623.02
2019-01-12T08:44:13.606Z,97621.05
2019-01-12T08:46:43.456Z,97619.95
2019-01-12T08:49:13.216Z,97613.22
2019-01-12T08:51:43.183Z,97612.05
2019-01-12T08:54:14.578Z,97613.00
2019-01-12T08:56:44.308Z,97607.83
2019-01-12T08:59:14.570Z,97593.58
2019-01-12T09:01:44.211Z,97595.28
2019-01-12T09:04:13.964Z,97587.42
2019-01-12T09:06:43.723Z,97596.42
2019-01-12T09:09:13.480Z,97590.70
2019-01-12T09:11:43.236Z,97592.37
2019-01-12T09:14:13.020Z,97597.88
2019-01-12T09:16:44.642Z,97587.82
2019-01-12T09:19:15.848Z,97576.47
2019-01-12T09:21:45.902Z,97592.41
2019-01-12T09:24:16.095Z,97578.45
2019-01-12T09:26:46.018Z,97578.33
2019-01-12T09:29:18.122Z,97585.70
2019-01-12T09:31:47.906Z,97590.05
2019-01-12T09:34:17.685Z,97590.33
2019-01-12T09:36:47.538Z,97590.66
2019-01-12T09:39:17.171Z,97592.12
2019-01-12T09:41:46.944Z,97584.32
2019-01-12T09:44:16.790Z,97584.60
2019-01-12T09:46:46.516Z,97585.37
2019-01-12T09:49:16.362Z,97580.68
2019-01-12T09:51:46.128Z,97572.13
2019-01-12T09:54:15.790Z,97581.88
2019-01-12T09:56:51.550Z,97574.64
2019-01-12T09:59:18.232Z,97571.05
2019-01-12T10:01:48.022Z,97568.53
2019-01-12T10:04:17.800Z,97572.87
2019-01-12T10:06:47.610Z,97563.93
2019-01-12T10:09:17.387Z,97561.80
2019-01-12T10:11:47.120Z,97580.72
2019-01-12T10:14:16.921Z,97567.02
2019-01-12T10:16:46.643Z,97572.28
2019-01-12T10:19:17.399Z,97566.19
2019-01-12T10:21:47.142Z,97564.00
2019-01-12T10:24:18.290Z,97556.61
2019-01-12T10:26:49.727Z,97565.39
2019-01-12T10:29:20.290Z,97548.09
2019-01-12T10:31:50.393Z,97541.25
2019-01-12T10:34:20.237Z,97539.97
2019-01-12T10:36:50.172Z,97529.94
2019-01-12T10:39:19.762Z,97535.55
2019-01-12T10:41:49.688Z,97538.55
2019-01-12T10:44:20.019Z,97539.41
2019-01-12T10:46:49.791Z,97539.00
2019-01-12T10:49:19.574Z,97535.58
2019-01-12T10:51:49.387Z,97518.75
2019-01-12T10:54:19.450Z,97534.02
2019-01-12T10:56:49.915Z,97525.45
2019-01-12T10:59:21.463Z,97516.81
2019-01-12T11:01:51.137Z,97521.23
2019-01-12T11:04:21.721Z,97523.44
2019-01-12T11:06:51.472Z,97517.03
2019-01-12T11:09:21.259Z,97510.64
2019-01-12T11:11:51.118Z,97521.77
2019-01-12T11:14:20.950Z,97510.23
2019-01-12T11:16:50.668Z,97505.11
2019-01-12T11:19:20.497Z,97514.69
2019-01-12T11:21:50.291Z,97513.72
2019-01-12T11:24:20.118Z,97511.17
2019-01-12T11:26:49.815Z,97502.09
2019-01-12T11:29:19.620Z,97510.75
2019-01-12T11:31:49.410Z,97506.41
2019-01-12T11:34:19.206Z,97509.44
2019-01-12T11:36:48.979Z,97514.03
2019-01-12T11:39:18.757Z,97505.81
2019-01-12T11:41:48.587Z,97510.58
2019-01-12T11:44:18.323Z,97513.08
2019-01-12T11:46:48.146Z,97504.33
2019-01-12T11:49:18.552Z,97499.11
2019-01-12T11:51:48.324Z,97507.70
2019-01-12T11:54:18.115Z,97492.02
2019-01-12T11:56:47.896Z,97490.72
2019-01-12T11:59:17.747Z,97495.50
2019-01-12T12:01:47.372Z,97486.84
2019-01-12T12:04:17.045Z,97469.99
2019-01-12T12:06:46.885Z,97471.30
2019-01-12T12:09:18.522Z,97461.69
2019-01-12T12:11:48.318Z,97456.89
2019-01-12T12:14:18.141Z,97456.86
2019-01-12T12:16:47.921Z,97455.53
2019-01-12T12:19:17.691Z,97458.14
2019-01-12T12:21:47.350Z,97459.00
2019-01-12T12:24:17.187Z,97457.75
2019-01-12T12:26:46.892Z,97448.74
2019-01-12T12:29:16.711Z,97450.98
2019-01-12T12:31:46.386Z,97448.02
2019-01-12T12:34:16.201Z,97453.26
2019-01-12T12:36:45.985Z,97444.18
2019-01-12T12:39:15.767Z,97437.69
2019-01-12T12:41:45.652Z,97435.13
2019-01-12T12:44:15.496Z,97440.44
2019-01-12T12:46:46.119Z,97436.59
2019-01-12T12:49:15.893Z,97441.31
2019-01-12T12:51:45.781Z,97436.52
2019-01-12T12:54:15.657Z,97438.66
2019-01-12T12:56:45.334Z,97440.86
2019-01-12T12:59:15.263Z,97430.86
2019-01-12T13:01:45.234Z,97433.92
2019-01-12T13:04:14.990Z,97436.08
2019-01-12T13:06:44.810Z,97433.94
2019-01-12T13:09:14.574Z,97443.51
2019-01-12T13:11:44.350Z,97436.66
2019-01-12T13:14:14.184Z,97434.08
2019-01-12T13:16:43.966Z,97431.96
2019-01-12T13:19:13.824Z,97432.86
2019-01-12T13:21:43.841Z,97421.21
2019-01-12T13:24:13.671Z,97417.31
2019-01-12T13:26:43.473Z,97417.78
2019-01-12T13:29:13.915Z,97422.14
2019-01-12T13:31:43.929Z,97423.47
2019-01-12T13:34:13.713Z,97426.12
2019-01-12T13:36:43.552Z,97436.53
2019-01-12T13:39:13.369Z,97429.20
2019-01-12T13:41:43.205Z,97430.06
2019-01-12T13:44:12.975Z,97430.88
2019-01-12T13:46:42.770Z,97426.19
2019-01-12T13:49:12.613Z,97421.78
2019-01-12T13:51:42.574Z,97434.34
2019-01-12T13:54:12.500Z,97432.57
2019-01-12T13:56:42.254Z,97428.20
2019-01-12T13:59:11.917Z,97424.25
2019-01-12T14:01:41.735Z,97414.63
2019-01-12T14:04:11.541Z,97422.36
2019-01-12T14:06:41.402Z,97418.86
2019-01-12T14:09:11.251Z,97409.34
2019-01-12T14:11:41.040Z,97415.36
2019-01-12T14:14:10.814Z,97421.80
2019-01-12T14:16:40.653Z,97410.61
2019-01-12T14:19:10.480Z,97405.01
2019-01-12T14:21:40.293Z,97402.89
2019-01-12T14:24:10.119Z,97399.88
2019-01-12T14:26:39.962Z,97393.89
2019-01-12T14:29:09.779Z,97398.75
2019-01-12T14:31:39.558Z,97404.00
2019-01-12T14:34:09.370Z,97395.41
2019-01-12T14:36:39.170Z,97394.59
2019-01-12T14:39:10.440Z,97411.92
2019-01-12T14:41:40.214Z,97404.63
2019-01-12T14:44:10.006Z,97396.39
2019-01-12T14:46:40.635Z,97388.73
2019-01-12T14:49:10.557Z,97384.92
2019-01-12T14:51:40.355Z,97375.89
2019-01-12T14:54:10.068Z,97393.64
2019-01-12T14:56:40.007Z,97398.41
2019-01-12T14:59:10.029Z,97398.31
2019-01-12T15:01:39.881Z,97389.28
2019-01-12T15:04:09.700Z,97392.84
2019-01-12T15:06:39.579Z,97388.61
2019-01-12T15:09:09.428Z,97377.05
2019-01-12T15:11:40.258Z,97382.28
2019-01-12T15:14:11.021Z,97388.83
2019-01-12T15:16:40.895Z,97381.94
2019-01-12T15:19:10.695Z,97369.02
2019-01-12T15:21:40.506Z,97372.95
2019-01-12T15:24:10.355Z,97385.48
2019-01-12T15:26:40.168Z,97383.78
2019-01-12T15:29:10.993Z,97378.63
2019-01-12T15:31:40.609Z,97374.77
2019-01-12T15:34:10.267Z,97386.44
2019-01-12T15:36:40.931Z,97389.03
2019-01-12T15:39:11.182Z,97392.08
2019-01-12T15:41:41.301Z,97390.37
2019-01-12T15:44:11.691Z,97390.33
2019-01-12T15:46:41.965Z,97394.19
2019-01-12T15:49:11.819Z,97396.77
2019-01-12T15:51:41.949Z,97392.91
2019-01-12T15:54:11.810Z,97390.80
2019-01-12T15:56:41.547Z,97396.01
2019-01-12T15:59:11.383Z,97392.14
2019-01-12T16:01:41.239Z,97402.52
2019-01-12T16:04:11.964Z,97395.64
2019-01-12T16:06:41.728Z,97385.20
2019-01-12T16:09:11.616Z,97382.50
2019-01-12T16:11:41.471Z,97376.55
2019-01-12T16:14:11.741Z,97384.37
2019-01-12T16:16:41.506Z,97390.02
2019-01-12T16:19:11.357Z,97390.44
2019-01-12T16:21:41.137Z,97387.88
2019-01-12T16:24:11.096Z,97380.98
2019-01-12T16:26:40.896Z,97384.45
2019-01-12T16:29:10.824Z,97391.33
2019-01-12T16:31:40.622Z,97381.00
2019-01-12T16:34:10.423Z,97371.93
2019-01-12T16:36:40.351Z,97375.82
2019-01-12T16:39:10.182Z,97390.91
2019-01-12T16:41:39.973Z,97388.72
2019-01-12T16:44:09.795Z,97384.00
2019-01-12T16:46:39.542Z,97390.42
2019-01-12T16:49:09.398Z,97385.25
2019-01-12T16:51:39.197Z,97386.98
2019-01-12T16:54:09.041Z,97393.02
2019-01-12T16:56:38.925Z,97390.88
2019-01-12T16:59:08.756Z,97394.33
2019-01-12T17:01:38.556Z,97386.56
2019-01-12T17:04:08.403Z,97387.84
2019-01-12T17:06:38.171Z,97390.40
2019-01-12T17:09:08.937Z,97384.36
2019-01-12T17:11:38.772Z,97388.25
2019-01-12T17:14:08.592Z,97391.30
2019-01-12T17:16:38.754Z,97389.58
2019-01-12T17:19:08.586Z,97377.50
2019-01-12T17:21:38.335Z,97374.05
2019-01-12T17:24:08.104Z,97380.95
2019-01-12T17:26:37.952Z,97391.73
2019-01-12T17:29:07.800Z,97388.73
2019-01-12T17:31:37.607Z,97369.75
2019-01-12T17:34:07.552Z,97373.63
2019-01-12T17:36:37.235Z,97381.80
2019-01-12T17:39:09.349Z,97379.25
2019-01-12T17:41:39.153Z,97375.38
2019-01-12T17:44:09.156Z,97381.80
2019-01-12T17:46:39.137Z,97375.78
2019-01-12T17:49:08.939Z,97375.78
2019-01-12T17:51:38.797Z,97363.73
2019-01-12T17:54:08.757Z,97371.49
2019-01-12T17:56:38.585Z,97368.46
2019-01-12T17:59:08.213Z,97371.50
2019-01-12T18:01:38.035Z,97365.91
2019-01-12T18:04:10.337Z,97362.38
2019-01-12T18:06:40.162Z,97362.38
2019-01-12T18:09:10.293Z,97358.94
2019-01-12T18:11:40.167Z,97363.25
2019-01-12T18:14:09.997Z,97364.50
2019-01-12T18:16:39.833Z,97365.77
2019-01-12T18:19:09.639Z,97355.42
2019-01-12T18:21:39.524Z,97351.09
2019-01-12T18:24:09.374Z,97350.64
2019-01-12T18:26:39.179Z,97345.05
2019-01-12T18:29:09.034Z,97338.17
2019-01-12T18:31:38.841Z,97341.20
2019-01-12T18:34:08.659Z,97334.74
2019-01-12T18:36:38.511Z,97331.73
2019-01-12T18:39:08.309Z,97323.56
2019-01-12T18:41:38.136Z,97318.43
2019-01-12T18:44:07.971Z,97316.73
2019-01-12T18:46:39.353Z,97318.46
2019-01-12T18:49:09.499Z,97319.70
2019-01-12T18:51:39.327Z,97304.20
2019-01-12T18:54:09.155Z,97302.05
2019-01-12T18:56:39.065Z,97312.32
2019-01-12T18:59:09.110Z,97298.97
2019-01-12T19:01:38.892Z,97295.09
2019-01-12T19:04:08.677Z,97302.42
2019-01-12T19:06:38.553Z,97297.27
2019-01-12T19:09:10.983Z,97298.98
2019-01-12T19:11:40.811Z,97311.88
2019-01-12T19:14:10.656Z,97312.75
2019-01-12T19:16:40.479Z,97306.30
2019-01-12T19:19:10.332Z,97298.98
2019-01-12T19:21:40.233Z,97299.85
2019-01-12T19:24:11.628Z,97303.67
2019-01-12T19:26:41.503Z,97295.08
2019-01-12T19:29:11.344Z,97299.77
2019-01-12T19:31:41.088Z,97307.97
2019-01-12T19:34:10.933Z,97302.35
2019-01-12T19:36:40.817Z,97302.78
2019-01-12T19:39:11.665Z,97297.16
2019-01-12T19:41:41.623Z,97297.16
2019-01-12T19:44:11.430Z,97293.30
2019-01-12T19:46:41.299Z,97294.13
2019-01-12T19:49:11.278Z,97283.81
2019-01-12T19:51:41.083Z,97277.34
2019-01-12T19:54:12.441Z,97278.23
2019-01-12T19:56:42.296Z,97285.20
2019-01-12T19:59:13.783Z,97268.34
2019-01-12T20:01:43.612Z,97269.17
2019-01-12T20:04:13.428Z,97269.17
2019-01-12T20:06:43.405Z,97259.72
2019-01-12T20:09:13.283Z,97259.31
2019-01-12T20:11:43.187Z,97267.08
2019-01-12T20:14:13.078Z,97266.67
2019-01-12T20:16:42.918Z,97257.36
2019-01-12T20:19:12.741Z,97243.17
2019-01-12T20:21:42.505Z,97242.28
2019-01-12T20:24:12.384Z,97242.69
2019-01-12T20:26:42.217Z,97244.38
2019-01-12T20:29:12.449Z,97237.89
2019-01-12T20:31:50.975Z,97230.97
2019-01-12T20:34:26.361Z,97234.41
2019-01-12T20:37:09.109Z,97223.27
2019-01-12T20:39:41.968Z,97220.22
2019-01-12T20:42:26.642Z,97218.91
2019-01-12T20:45:25.120Z,97221.48
2019-01-12T20:48:21.894Z,97220.63
2019-01-12T20:50:54.816Z,97204.71
2019-01-12T20:53:45.574Z,97215.02
2019-01-12T20:56:28.870Z,97204.25
2019-01-12T20:59:14.425Z,97209.41
2019-01-12T21:01:55.638Z,97203.85
2019-01-12T21:04:48.630Z,97193.94
2019-01-12T21:07:33.773Z,97191.79
2019-01-12T21:10:29.283Z,97190.09
2019-01-12T21:13:29.260Z,97182.81
2019-01-12T21:16:04.867Z,97183.66
2019-01-12T21:18:34.739Z,97178.95
2019-01-12T21:21:04.596Z,97178.95
2019-01-12T21:23:34.413Z,97178.94
2019-01-12T21:26:04.267Z,97178.96
2019-01-12T21:28:34.510Z,97176.39
2019-01-12T21:31:04.446Z,97161.34
2019-01-12T21:33:34.267Z,97166.94
2019-01-12T21:36:04.077Z,97169.94
2019-01-12T21:38:33.913Z,97168.66
2019-01-12T21:41:03.722Z,97174.23
2019-01-12T21:43:33.561Z,97163.52
2019-01-12T21:46:04.622Z,97167.83
2019-01-12T21:48:34.443Z,97164.37
2019-01-12T21:51:04.226Z,97160.95
2019-01-12T21:53:34.079Z,97156.65
2019-01-12T21:56:03.864Z,97154.06
2019-01-12T21:58:33.744Z,97150.16
2019-01-12T22:01:03.498Z,97154.03
2019-01-12T22:03:33.285Z,97145.01
2019-01-12T22:06:03.082Z,97148.45
2019-01-12T22:08:32.948Z,97148.43
2019-01-12T22:11:02.744Z,97128.23
2019-01-12T22:13:32.514Z,97129.09
2019-01-12T22:16:02.350Z,97120.92
2019-01-12T22:18:32.137Z,97097.30
2019-01-12T22:21:02.037Z,97097.30
2019-01-12T22:23:32.037Z,97095.58
2019-01-12T22:26:01.962Z,97099.86
2019-01-12T22:28:31.794Z,97099.45
2019-01-12T22:31:01.644Z,97112.34
2019-01-12T22:33:31.479Z,97111.92
2019-01-12T22:36:02.319Z,97121.36
2019-01-12T22:38:32.140Z,97118.36
2019-01-12T22:41:01.918Z,97114.92
2019-01-12T22:43:31.827Z,97116.62
2019-01-12T22:46:01.611Z,97118.34
2019-01-12T22:48:31.287Z,97105.89
2019-01-12T22:51:01.059Z,97086.09
2019-01-12T22:53:30.814Z,97082.20
2019-01-12T22:56:00.868Z,97083.52
2019-01-12T22:58:30.615Z,97083.52
2019-01-12T23:01:03.863Z,97083.94
2019-01-12T23:03:33.646Z,97075.80
2019-01-12T23:06:03.427Z,97072.34
2019-01-12T23:08:33.281Z,97054.28
2019-01-12T23:11:03.017Z,97050.40
2019-01-12T23:13:32.803Z,97050.40
2019-01-12T23:16:02.625Z,97049.11
2019-01-12T23:18:33.867Z,97053.41
2019-01-12T23:21:03.590Z,97053.41
2019-01-12T23:23:34.017Z,97041.37
2019-01-12T23:26:03.800Z,97032.80
2019-01-12T23:28:33.595Z,97046.56
2019-01-12T23:31:03.406Z,97036.23
2019-01-12T23:33:33.150Z,97035.35
2019-01-12T23:36:02.978Z,97025.07
2019-01-12T23:38:32.760Z,97028.03
2019-01-12T23:41:02.456Z,97028.03
2019-01-12T23:43:32.317Z,97034.48
2019-01-12T23:46:02.091Z,97034.48
2019-01-12T23:48:31.709Z,97030.64
2019-01-12T23:51:01.595Z,97020.72
2019-01-12T23:53:31.774Z,97020.72
2019-01-12T23:56:01.610Z,97019.00
2019-01-12T23:58:31.311Z,97010.84
